Terminal Aerodrome Forecast
Issued by NWS Tulsa, OK

Home | Current Version | Previous Version | Text Only | Print | Product List | Glossary On
Versions: 1 2 3 4 5 6 7 8 9 10 11 12 13 14 15 16 17 18
000
FTUS44 KTSA 241400 AAA
TAFFSM
TAF AMD
KFSM 241406Z 2414/2512 18010KT 6SM -RA BR FEW017 BKN030 OVC040
      TEMPO 2414/2417 VRB15G25KT 1SM TSRA OVC025CB
     FM241700 13013KT 6SM -TSRA OVC015CB
      TEMPO 2500/2504 4SM -RA BR BKN025 OVC040
     FM250400 13013KT 6SM -TSRA SCT007 OVC015CB
      TEMPO 2504/2508 3SM -RA BR BKN008 OVC030=

USA.gov is the U.S. government's official web portal to all federal, state and local government web resources and services.